AirNav   Duncan Aviation - Near you to keep you flying
 
 1773 users online  

6Y5 Two Hearted Airstrip
Newberry, Michigan, USA

GOING TO NEWBERRY?


FAA INFORMATION EFFECTIVE 11 AUGUST 2022

Location

FAA Identifier: 6Y5
Lat/Long: 46-41-36.0450N 085-25-19.5450W
46-41.600750N 085-25.325750W
46.6933458,-85.4220958
(estimated)
Elevation: 680 ft. / 207 m (estimated)
From city: 20 miles N of NEWBERRY, MI
Time zone: UTC -4 (UTC -5 during Standard Time)
Zip code: 49768

Airport Operations

Airport use: Open to the public
Activation date: 03/2018
Control tower: no
ARTCC: MINNEAPOLIS CENTER
FSS: GREEN BAY FLIGHT SERVICE STATION
NOTAMs facility: GRB (NOTAM-D service available)
Attendance: 
Segmented circle: no

Airport Communications

CTAF: 122.9

Airport Services

Runway Information

Runway 7/25

Dimensions: 2400 x 75 ft. / 732 x 23 m
Surface: turf, in poor condition
RWY ROUGH & UNEVEN, SOME SOFT AREAS.
RUNWAY 7  RUNWAY 25
Latitude: 46-41.498500N46-41.703000N
Longitude: 085-25.571167W085-25.080333W
Elevation: 678.0 ft.672.0 ft.
Traffic pattern: leftleft
Obstructions: 38 ft. trees, 560 ft. from runway, 14:1 slope to clear25 ft. trees, 64 ft. from runway, 65 ft. right of centerline, 2:1 slope to clear

Airport Ownership and Management from official FAA records

Ownership: Publicly-owned
Owner: STATE OF MICHIGAN DNR
PO BOX 30452
LANSING, MI 48909-7952
Phone 517-284-6367
Manager: JAY HOLLNAGEL
5523 COUNTY ROAD 399
NEWBERRY, MI 49868-7882
Phone 906-291-0570

Additional Remarks

ARPT CLSD NOV-MAY 15 AND WHEN SNOW COVERED EXCP FOR SKI EQUIP ACFT. NO SNOW REMOVAL.
FQT HIGH WINDS OFF LAKE SUPERIOR.
FOR CD CTC MINNEAPOLIS ARTCC AT 651-463-5588.

Instrument Procedures

There are no published instrument procedures at 6Y5.

Some nearby airports with instrument procedures:

KERY - Luce County Airport (23 nm S)
KANJ - Sault Ste Marie Municipal Airport/Sanderson Field (45 nm E)
KCIU - Chippewa County International Airport (47 nm SE)
KISQ - Schoolcraft County Airport (53 nm SW)
83D - Mackinac County Airport (56 nm SE)
 
Loc | Ops | Rwys | IFR | FBO | Links
Com | Nav | Svcs | Stats | Notes
Aerial photo
No photo
 
Airport distance calculator
Flying to Two Hearted Airstrip? Find the distance to fly.

From to 6Y5

Sunrise and sunset
Times for 18-Aug-2022
 Local
(UTC-4)
 Zulu
(UTC)
Morning civil twilight06:1210:12
Sunrise06:4410:44
Sunset20:4700:47
Evening civil twilight21:1901:19

Current date and time
Zulu (UTC)  18-Aug-2022 19:49:30
Local (UTC-4)  18-Aug-2022 15:49:30
 
METAR
KERY 
24nm S 
181935Z AUTO 20012G19KT 10SM SCT042 SCT050 BKN120 25/15 A2990 RMK AO2 T02490154
CYAM 
40nm E 
181900Z 12003KT 15SM -SHRA FEW018 SCT022TCU BKN130 22/20 A2992 RMK CU1TCU4ACC2 LTNG DTCTR 30SM NE AND 45SM E MOV E SLP136 DENSITY ALT 1700FT
CWCI 
41nm NW 
181800Z AUTO 15008KT 20/16 RMK AO1 7008 SLP123 T02030160 50008
KANJ 
46nm E 
181855Z AUTO 11004KT 10SM FEW039 SCT047 BKN110 22/17 A2993 RMK AO2 LTG DSNT NE RAE00 TSE1756 SLP131 P0000 T02170172 $
TAF
CYAM 
40nm E 
181805Z 1818/1902 VRB03KT P6SM FEW040 TEMPO 1818/1819 2SM TSRA BR BKN020 OVC040CB FM181900 27008KT P6SM BKN050 OVC090 TEMPO 1819/1824 P6SM -SHRA OVC050 PROB30 1819/1824 2SM TSRA BR BKN020 OVC050CB FM190000 23006KT P6SM OVC050 RMK NXT FCST BY 182000Z
KCIU 
48nm SE 
181738Z 1818/1918 24009KT P6SM VCSH SCT070 FM182000 25009KT P6SM VCTS SCT040CB FM190300 VRB05KT P6SM SCT060
NOTAMs
Click for the latest NOTAMs
NOTAMs are issued by the DoD/FAA and will open in a separate window not controlled by AirNav.

 

 
 

Would you like to see your business listed on this page?

 If your business provides an interesting product or service to pilots, flight crews, aircraft, or users of the Two Hearted Airstrip, you should consider listing it here.  To start the listing process, click on the button below
 
Add a business
 

Other Pages about Two Hearted Airstrip

Page from the Michigan Airport Directory (PDF)
 
Update a link
 
Copyright © AirNav, LLC. All rights reserved. Privacy Policy  Contact